createdAt,value
2022-10-08T00:01:33.318Z,13.27
2022-10-08T00:04:03.473Z,14.02
2022-10-08T00:06:34.041Z,14.32
2022-10-08T00:09:08.496Z,13.65
2022-10-08T00:11:40.941Z,13.10
2022-10-08T00:14:10.540Z,12.57
2022-10-08T00:16:41.668Z,13.27
2022-10-08T00:19:14.890Z,12.77
2022-10-08T00:21:45.978Z,12.77
2022-10-08T00:24:18.693Z,12.32
2022-10-08T00:26:47.823Z,12.32
2022-10-08T00:29:22.726Z,13.25
2022-10-08T00:31:52.159Z,13.45
2022-10-08T00:34:24.104Z,12.50
2022-10-08T00:36:54.493Z,12.20
2022-10-08T00:39:26.544Z,11.95
2022-10-08T00:41:57.108Z,13.00
2022-10-08T00:44:54.879Z,12.57
2022-10-08T00:47:36.506Z,12.65
2022-10-08T00:50:13.324Z,12.93
2022-10-08T00:52:48.657Z,12.02
2022-10-08T00:55:23.709Z,12.77
2022-10-08T00:57:53.141Z,11.75
2022-10-08T01:00:25.928Z,12.45
2022-10-08T01:02:55.642Z,13.45
2022-10-08T01:05:39.432Z,12.75
2022-10-08T01:08:18.963Z,12.73
2022-10-08T01:11:00.514Z,12.93
2022-10-08T01:13:42.365Z,12.52
2022-10-08T01:16:28.283Z,12.20
2022-10-08T01:19:14.865Z,12.57
2022-10-08T01:22:00.073Z,13.50
2022-10-08T01:25:02.673Z,13.32
2022-10-08T01:27:39.458Z,13.52
2022-10-08T01:30:14.669Z,12.65
2022-10-08T01:32:50.256Z,12.30
2022-10-08T01:35:25.732Z,12.65
2022-10-08T01:38:00.895Z,13.68
2022-10-08T01:40:35.673Z,13.18
2022-10-08T01:43:11.461Z,13.77
2022-10-08T01:45:46.670Z,13.32
2022-10-08T01:48:26.079Z,14.55
2022-10-08T01:51:00.274Z,13.23
2022-10-08T01:53:35.731Z,13.20
2022-10-08T01:56:09.190Z,12.93
2022-10-08T01:58:50.097Z,13.88
2022-10-08T02:01:28.303Z,12.80
2022-10-08T02:04:14.703Z,13.60
2022-10-08T02:06:51.804Z,13.18
2022-10-08T02:09:22.523Z,13.73
2022-10-08T02:11:51.013Z,12.93
2022-10-08T02:14:24.008Z,13.30
2022-10-08T02:17:02.964Z,12.82
2022-10-08T02:19:47.647Z,12.95
2022-10-08T02:22:20.913Z,12.70
2022-10-08T02:25:00.183Z,12.88
2022-10-08T02:27:44.469Z,12.85
2022-10-08T02:30:14.936Z,12.93
2022-10-08T02:32:55.952Z,12.32
2022-10-08T02:35:32.851Z,13.50
2022-10-08T02:38:07.777Z,11.80
2022-10-08T02:40:42.152Z,12.98
2022-10-08T02:43:18.901Z,12.82
2022-10-08T02:45:56.442Z,13.13
2022-10-08T02:48:32.305Z,12.70
2022-10-08T02:51:07.796Z,12.75
2022-10-08T02:53:40.451Z,12.95
2022-10-08T02:56:17.895Z,12.05
2022-10-08T02:58:48.351Z,12.90
2022-10-08T03:01:28.540Z,12.82
2022-10-08T03:04:04.714Z,13.05
2022-10-08T03:06:34.635Z,14.68
2022-10-08T03:09:06.856Z,13.85
2022-10-08T03:11:36.538Z,13.05
2022-10-08T03:14:10.460Z,13.40
2022-10-08T03:16:44.539Z,13.07
2022-10-08T03:19:16.405Z,13.40
2022-10-08T03:21:49.532Z,13.25
2022-10-08T03:24:18.372Z,13.88
2022-10-08T03:26:47.097Z,12.77
2022-10-08T03:29:15.613Z,13.05
2022-10-08T03:31:45.722Z,12.60
2022-10-08T03:34:14.243Z,13.15
2022-10-08T03:36:42.767Z,12.23
2022-10-08T03:39:12.799Z,13.10
2022-10-08T03:41:42.225Z,12.70
2022-10-08T03:44:12.494Z,12.73
2022-10-08T03:46:41.471Z,12.95
2022-10-08T03:49:11.359Z,12.80
2022-10-08T03:51:39.867Z,13.27
2022-10-08T03:54:08.573Z,12.35
2022-10-08T03:56:37.210Z,13.25
2022-10-08T03:59:05.808Z,13.50
2022-10-08T04:01:34.660Z,13.25
2022-10-08T04:04:03.292Z,12.50
2022-10-08T04:06:33.333Z,13.07
2022-10-08T04:09:02.160Z,12.93
2022-10-08T04:11:31.027Z,12.65
2022-10-08T04:14:01.214Z,12.40
2022-10-08T04:16:30.028Z,12.43
2022-10-08T04:18:58.546Z,13.13
2022-10-08T04:21:27.082Z,13.27
2022-10-08T04:23:57.173Z,12.90
2022-10-08T04:26:25.743Z,12.07
2022-10-08T04:28:54.893Z,12.43
2022-10-08T04:31:24.987Z,12.35
2022-10-08T04:33:54.222Z,12.43
2022-10-08T04:36:25.726Z,12.52
2022-10-08T04:38:55.933Z,12.50
2022-10-08T04:41:26.310Z,12.73
2022-10-08T04:43:59.488Z,11.77
2022-10-08T04:46:28.675Z,12.18
2022-10-08T04:48:59.268Z,12.00
2022-10-08T04:51:29.077Z,13.52
2022-10-08T04:53:59.826Z,12.20
2022-10-08T04:56:31.728Z,12.80
2022-10-08T04:59:01.130Z,13.32
2022-10-08T05:01:31.189Z,13.40
2022-10-08T05:04:01.134Z,12.95
2022-10-08T05:06:32.143Z,13.23
2022-10-08T05:09:04.181Z,13.60
2022-10-08T05:11:34.260Z,13.00
2022-10-08T05:14:03.466Z,12.90
2022-10-08T05:16:32.286Z,13.40
2022-10-08T05:19:01.115Z,12.50
2022-10-08T05:21:32.467Z,12.95
2022-10-08T05:24:06.663Z,12.27
2022-10-08T05:26:57.522Z,12.27
2022-10-08T05:29:28.447Z,12.40
2022-10-08T05:31:57.586Z,12.23
2022-10-08T05:34:26.209Z,12.80
2022-10-08T05:36:55.036Z,13.00
2022-10-08T05:39:25.411Z,12.65
2022-10-08T05:41:54.392Z,12.70
2022-10-08T05:44:23.128Z,12.15
2022-10-08T05:46:51.920Z,12.90
2022-10-08T05:49:23.084Z,12.65
2022-10-08T05:51:52.145Z,12.68
2022-10-08T05:54:21.954Z,12.75
2022-10-08T05:56:52.223Z,12.82
2022-10-08T05:59:24.563Z,12.75
2022-10-08T06:01:53.627Z,12.18
2022-10-08T06:04:22.297Z,12.23
2022-10-08T06:06:51.092Z,13.07
2022-10-08T06:09:22.013Z,13.20
2022-10-08T06:11:52.448Z,12.55
2022-10-08T06:14:21.283Z,12.32
2022-10-08T06:16:49.829Z,12.55
2022-10-08T06:19:18.619Z,13.07
2022-10-08T06:21:47.389Z,12.20
2022-10-08T06:24:16.179Z,13.32
2022-10-08T06:26:45.714Z,12.63
2022-10-08T06:29:19.140Z,12.25
2022-10-08T06:31:48.495Z,12.38
2022-10-08T06:34:17.483Z,12.35
2022-10-08T06:36:46.278Z,12.40
2022-10-08T06:39:17.972Z,12.75
2022-10-08T06:41:46.976Z,12.60
2022-10-08T06:44:19.127Z,12.77
2022-10-08T06:46:48.123Z,12.93
2022-10-08T06:49:18.334Z,12.07
2022-10-08T06:51:46.981Z,11.63
2022-10-08T06:54:16.459Z,12.38
2022-10-08T06:56:44.987Z,12.32
2022-10-08T06:59:13.634Z,12.27
2022-10-08T07:01:43.964Z,12.35
2022-10-08T07:04:12.944Z,12.82
2022-10-08T07:06:41.444Z,11.60
2022-10-08T07:09:11.053Z,11.90
2022-10-08T07:11:40.179Z,11.63
2022-10-08T07:14:08.993Z,11.77
2022-10-08T07:16:37.723Z,12.75
2022-10-08T07:19:07.853Z,11.70
2022-10-08T07:21:36.516Z,12.27
2022-10-08T07:24:05.441Z,11.27
2022-10-08T07:26:36.291Z,12.05
2022-10-08T07:29:08.268Z,11.52
2022-10-08T07:31:39.229Z,11.23
2022-10-08T07:34:13.677Z,11.73
2022-10-08T07:36:43.530Z,11.07
2022-10-08T07:39:15.216Z,11.15
2022-10-08T07:41:43.962Z,11.30
2022-10-08T07:44:13.630Z,10.95
2022-10-08T07:46:45.922Z,10.70
2022-10-08T07:49:17.195Z,10.50
2022-10-08T07:51:46.637Z,9.68
2022-10-08T07:54:18.272Z,10.13
2022-10-08T07:56:47.648Z,10.38
2022-10-08T07:59:16.581Z,10.00
2022-10-08T08:01:45.617Z,11.30
2022-10-08T08:04:15.874Z,10.02
2022-10-08T08:06:47.749Z,9.95
2022-10-08T08:09:18.270Z,9.48
2022-10-08T08:11:48.316Z,10.50
2022-10-08T08:14:16.924Z,9.20
2022-10-08T08:16:45.706Z,8.70
2022-10-08T08:19:15.882Z,10.30
2022-10-08T08:21:44.719Z,9.05
2022-10-08T08:24:15.280Z,8.88
2022-10-08T08:26:45.078Z,9.95
2022-10-08T08:29:17.256Z,9.73
2022-10-08T08:31:48.400Z,9.48
2022-10-08T08:34:21.363Z,9.35
2022-10-08T08:36:53.653Z,9.25
2022-10-08T08:39:25.634Z,10.10
2022-10-08T08:42:18.582Z,10.23
2022-10-08T08:44:50.743Z,9.70
2022-10-08T08:47:26.889Z,9.95
2022-10-08T08:50:03.823Z,11.38
2022-10-08T08:52:41.428Z,12.13
2022-10-08T08:55:18.135Z,11.27
2022-10-08T08:57:58.367Z,11.95
2022-10-08T09:00:36.535Z,10.27
2022-10-08T09:03:17.936Z,9.77
2022-10-08T09:05:53.779Z,9.45
2022-10-08T09:08:29.336Z,9.60
2022-10-08T09:11:01.570Z,9.35
2022-10-08T09:13:38.296Z,9.18
2022-10-08T09:16:07.660Z,9.40
2022-10-08T09:18:36.317Z,9.63
2022-10-08T09:21:06.472Z,9.13
2022-10-08T09:23:35.225Z,9.05
2022-10-08T09:26:14.273Z,9.00
2022-10-08T09:28:47.222Z,9.02
2022-10-08T09:31:27.432Z,9.50
2022-10-08T09:34:06.425Z,8.63
2022-10-08T09:36:41.627Z,9.05
2022-10-08T09:39:20.446Z,8.52
2022-10-08T09:42:12.948Z,8.10
2022-10-08T09:44:44.195Z,8.98
2022-10-08T09:47:15.596Z,8.80
2022-10-08T09:49:49.893Z,8.68
2022-10-08T09:52:25.991Z,8.65
2022-10-08T09:55:03.399Z,9.73
2022-10-08T09:57:34.889Z,8.40
2022-10-08T10:00:10.536Z,8.50
2022-10-08T10:02:39.993Z,8.80
2022-10-08T10:05:23.685Z,8.60
2022-10-08T10:07:54.305Z,8.77
2022-10-08T10:10:28.853Z,9.20
2022-10-08T10:13:03.775Z,8.13
2022-10-08T10:15:40.136Z,8.98
2022-10-08T10:18:17.021Z,7.50
2022-10-08T10:20:51.648Z,8.13
2022-10-08T10:23:29.309Z,8.30
2022-10-08T10:26:07.056Z,8.55
2022-10-08T10:28:44.207Z,7.65
2022-10-08T10:31:20.852Z,7.90
2022-10-08T10:33:57.269Z,8.43
2022-10-08T10:36:32.500Z,8.05
2022-10-08T10:39:14.486Z,8.85
2022-10-08T10:41:49.294Z,9.10
2022-10-08T10:44:27.786Z,8.45
2022-10-08T10:47:01.085Z,8.65
2022-10-08T10:49:38.266Z,9.50
2022-10-08T10:52:34.562Z,9.38
2022-10-08T10:55:22.301Z,7.93
2022-10-08T10:58:18.259Z,9.38
2022-10-08T11:01:03.131Z,10.10
2022-10-08T11:03:55.251Z,9.07
2022-10-08T11:07:01.384Z,8.98
2022-10-08T11:09:46.215Z,9.77
2022-10-08T11:12:37.329Z,9.60
2022-10-08T11:15:24.982Z,9.27
2022-10-08T11:18:30.889Z,9.05
2022-10-08T11:21:27.211Z,9.55
2022-10-08T11:24:30.373Z,10.50
2022-10-08T11:27:12.249Z,9.70
2022-10-08T11:29:57.729Z,9.55
2022-10-08T11:32:30.377Z,10.25
2022-10-08T11:35:20.535Z,11.45
2022-10-08T11:37:58.543Z,9.88
2022-10-08T11:40:35.189Z,10.07
2022-10-08T11:43:11.894Z,10.23
2022-10-08T11:45:46.024Z,9.85
2022-10-08T11:48:42.127Z,10.00
2022-10-08T11:51:31.853Z,10.57
2022-10-08T11:54:13.038Z,9.93
2022-10-08T11:56:46.533Z,10.15
2022-10-08T11:59:34.723Z,10.88
2022-10-08T12:02:19.552Z,10.68
2022-10-08T12:04:51.836Z,10.68
2022-10-08T12:07:28.602Z,10.45
2022-10-08T12:10:32.885Z,11.77
2022-10-08T12:13:29.552Z,11.30
2022-10-08T12:16:07.849Z,11.13
2022-10-08T12:18:46.710Z,11.27
2022-10-08T12:21:55.016Z,11.07
2022-10-08T12:24:58.893Z,10.45
2022-10-08T12:27:40.005Z,11.27
2022-10-08T12:30:12.773Z,10.80
2022-10-08T12:32:56.988Z,9.30
2022-10-08T12:35:31.223Z,10.50
2022-10-08T12:38:23.898Z,10.30
2022-10-08T12:41:11.304Z,10.63
2022-10-08T12:43:50.544Z,9.82
2022-10-08T12:46:36.491Z,11.20
2022-10-08T12:49:19.564Z,11.35
2022-10-08T12:52:00.556Z,11.35
2022-10-08T12:54:32.155Z,10.70
2022-10-08T12:57:08.084Z,9.38
2022-10-08T12:59:40.338Z,9.43
2022-10-08T13:02:28.459Z,9.70
2022-10-08T13:04:57.162Z,10.27
2022-10-08T13:07:30.764Z,9.23
2022-10-08T13:10:02.577Z,10.27
2022-10-08T13:12:31.476Z,9.75
2022-10-08T13:15:05.200Z,9.55
2022-10-08T13:17:36.338Z,9.70
2022-10-08T13:20:16.123Z,9.60
2022-10-08T13:22:46.460Z,9.68
2022-10-08T13:25:41.295Z,9.23
2022-10-08T13:28:16.227Z,10.45
2022-10-08T13:30:46.772Z,8.60
2022-10-08T13:33:20.680Z,9.57
2022-10-08T13:35:56.054Z,10.52
2022-10-08T13:38:32.734Z,9.82
2022-10-08T13:41:06.299Z,10.32
2022-10-08T13:43:36.630Z,9.75
2022-10-08T13:46:05.236Z,9.98
2022-10-08T13:48:33.794Z,9.50
2022-10-08T13:51:03.060Z,10.02
2022-10-08T13:53:33.018Z,10.02
2022-10-08T13:56:01.754Z,9.57
2022-10-08T13:58:32.395Z,10.25
2022-10-08T14:01:01.137Z,10.30
2022-10-08T14:03:29.817Z,9.80
2022-10-08T14:05:59.424Z,9.15
2022-10-08T14:08:32.431Z,9.43
2022-10-08T14:11:01.579Z,10.43
2022-10-08T14:13:30.412Z,10.23
2022-10-08T14:15:59.035Z,10.57
2022-10-08T14:18:27.874Z,10.73
2022-10-08T14:20:56.587Z,10.10
2022-10-08T14:23:25.175Z,9.23
2022-10-08T14:25:56.240Z,9.82
2022-10-08T14:28:24.990Z,9.10
2022-10-08T14:30:53.546Z,8.88
2022-10-08T14:33:22.304Z,9.48
2022-10-08T14:35:53.764Z,8.95
2022-10-08T14:38:22.522Z,7.88
2022-10-08T14:40:51.079Z,8.10
2022-10-08T14:43:22.080Z,8.77
2022-10-08T14:45:51.178Z,7.93
2022-10-08T14:48:20.202Z,8.50
2022-10-08T14:50:48.778Z,8.65
2022-10-08T14:53:17.827Z,7.82
2022-10-08T14:56:10.628Z,9.02
2022-10-08T14:58:36.736Z,8.48
2022-10-08T15:01:05.462Z,8.35
2022-10-08T15:03:34.156Z,8.48
2022-10-08T15:06:03.223Z,8.38
2022-10-08T15:08:31.769Z,8.80
2022-10-08T15:11:04.338Z,8.73
2022-10-08T15:13:33.413Z,8.63
2022-10-08T15:16:04.286Z,8.65
2022-10-08T15:18:33.955Z,8.93
2022-10-08T15:21:02.658Z,8.60
2022-10-08T15:23:31.497Z,8.45
2022-10-08T15:26:02.084Z,8.65
2022-10-08T15:28:31.449Z,10.60
2022-10-08T15:31:11.472Z,9.73
2022-10-08T15:33:42.147Z,10.77
2022-10-08T15:36:19.660Z,10.38
2022-10-08T15:38:55.310Z,11.00
2022-10-08T15:41:25.013Z,11.88
2022-10-08T15:43:54.030Z,11.32
2022-10-08T15:46:26.166Z,11.98
2022-10-08T15:48:57.414Z,11.50
2022-10-08T15:51:26.348Z,11.60
2022-10-08T15:53:54.878Z,11.88
2022-10-08T15:56:23.745Z,12.43
2022-10-08T15:58:52.492Z,10.80
2022-10-08T16:01:24.637Z,11.98
2022-10-08T16:03:56.114Z,11.55
2022-10-08T16:06:27.591Z,12.77
2022-10-08T16:08:58.866Z,12.85
2022-10-08T16:11:30.706Z,13.48
2022-10-08T16:14:02.447Z,13.60
2022-10-08T16:16:32.651Z,14.27
2022-10-08T16:19:04.354Z,17.67
2022-10-08T16:21:35.254Z,17.27
2022-10-08T16:24:04.679Z,16.00
2022-10-08T16:26:35.502Z,15.70
2022-10-08T16:29:07.691Z,17.33
2022-10-08T16:31:39.406Z,16.25
2022-10-08T16:34:12.461Z,17.48
2022-10-08T16:36:41.683Z,16.58
2022-10-08T16:39:12.337Z,16.90
2022-10-08T16:41:40.878Z,17.20
2022-10-08T16:44:13.184Z,15.95
2022-10-08T16:46:48.396Z,19.80
2022-10-08T16:49:24.718Z,20.77
2022-10-08T16:51:55.830Z,18.42
2022-10-08T16:54:24.734Z,20.92
2022-10-08T16:56:53.308Z,19.20
2022-10-08T16:59:24.518Z,20.27
2022-10-08T17:01:58.303Z,19.08
2022-10-08T17:04:29.831Z,18.27
2022-10-08T17:06:58.620Z,18.58
2022-10-08T17:09:27.247Z,16.27
2022-10-08T17:11:56.027Z,17.58
2022-10-08T17:14:24.770Z,18.67
2022-10-08T17:16:54.791Z,24.98
2022-10-08T17:19:23.339Z,21.83
2022-10-08T17:21:52.167Z,24.77
2022-10-08T17:24:20.881Z,23.05
2022-10-08T17:26:50.045Z,24.80
2022-10-08T17:29:18.735Z,22.75
2022-10-08T17:31:47.280Z,23.27
2022-10-08T17:34:17.192Z,21.65
2022-10-08T17:36:46.530Z,20.85
2022-10-08T17:39:15.894Z,21.98
2022-10-08T17:41:44.989Z,22.70
2022-10-08T17:44:14.595Z,21.60
2022-10-08T17:46:46.867Z,22.65
2022-10-08T17:49:19.370Z,23.63
2022-10-08T17:51:51.006Z,23.02
2022-10-08T17:54:21.348Z,23.95
2022-10-08T17:56:50.325Z,23.10
2022-10-08T17:59:22.591Z,24.42
2022-10-08T18:01:52.293Z,22.67
2022-10-08T18:04:22.351Z,22.23
2022-10-08T18:06:50.947Z,22.02
2022-10-08T18:09:22.024Z,21.30
2022-10-08T18:11:53.650Z,21.85
2022-10-08T18:14:23.891Z,21.30
2022-10-08T18:16:52.894Z,20.52
2022-10-08T18:19:23.071Z,20.70
2022-10-08T18:21:52.459Z,17.67
2022-10-08T18:24:21.005Z,19.67
2022-10-08T18:26:49.727Z,19.92
2022-10-08T18:29:18.585Z,17.10
2022-10-08T18:31:47.567Z,16.50
2022-10-08T18:34:20.005Z,15.90
2022-10-08T18:36:50.181Z,16.73
2022-10-08T18:39:26.149Z,17.10
2022-10-08T18:41:57.413Z,16.08
2022-10-08T18:44:27.704Z,16.92
2022-10-08T18:46:56.255Z,16.02
2022-10-08T18:49:30.324Z,16.17
2022-10-08T18:52:01.556Z,14.70
2022-10-08T18:54:30.733Z,16.13
2022-10-08T18:57:00.387Z,15.43
2022-10-08T18:59:30.879Z,15.55
2022-10-08T19:02:00.621Z,14.65
2022-10-08T19:04:29.694Z,16.08
2022-10-08T19:06:58.346Z,14.20
2022-10-08T19:09:28.678Z,16.08
2022-10-08T19:11:57.917Z,15.90
2022-10-08T19:14:26.702Z,14.75
2022-10-08T19:16:55.525Z,15.10
2022-10-08T19:19:27.481Z,14.80
2022-10-08T19:21:56.389Z,15.07
2022-10-08T19:24:29.052Z,16.00
2022-10-08T19:26:58.459Z,14.48
2022-10-08T19:29:33.701Z,17.13
2022-10-08T19:32:02.893Z,15.02
2022-10-08T19:34:31.825Z,15.48
2022-10-08T19:37:00.526Z,16.13
2022-10-08T19:39:31.935Z,15.93
2022-10-08T19:42:00.780Z,14.90
2022-10-08T19:44:29.362Z,14.45
2022-10-08T19:46:58.015Z,15.57
2022-10-08T19:49:26.869Z,14.18
2022-10-08T19:51:55.658Z,15.05
2022-10-08T19:54:25.478Z,15.00
2022-10-08T19:56:56.039Z,15.05
2022-10-08T19:59:24.622Z,15.57
2022-10-08T20:01:53.232Z,15.77
2022-10-08T20:04:23.515Z,15.27
2022-10-08T20:06:52.781Z,15.30
2022-10-08T20:09:21.425Z,16.42
2022-10-08T20:11:50.256Z,15.55
2022-10-08T20:14:20.287Z,15.45
2022-10-08T20:16:48.909Z,15.57
2022-10-08T20:19:20.880Z,17.20
2022-10-08T20:21:51.376Z,15.77
2022-10-08T20:24:20.945Z,15.80
2022-10-08T20:26:50.846Z,17.13
2022-10-08T20:29:26.254Z,15.88
2022-10-08T20:31:58.118Z,15.77
2022-10-08T20:34:31.374Z,15.90
2022-10-08T20:37:02.398Z,16.20
2022-10-08T20:39:31.466Z,15.50
2022-10-08T20:42:00.342Z,15.65
2022-10-08T20:44:30.470Z,15.43
2022-10-08T20:47:00.615Z,16.15
2022-10-08T20:49:30.744Z,16.17
2022-10-08T20:51:59.379Z,14.98
2022-10-08T20:54:28.173Z,15.98
2022-10-08T20:56:57.030Z,16.20
2022-10-08T20:59:26.365Z,15.63
2022-10-08T21:01:56.475Z,15.80
2022-10-08T21:04:25.278Z,14.50
2022-10-08T21:06:54.430Z,15.80
2022-10-08T21:09:23.343Z,15.23
2022-10-08T21:11:53.722Z,13.93
2022-10-08T21:14:24.122Z,13.52
2022-10-08T21:16:54.254Z,13.18
2022-10-08T21:19:25.910Z,13.82
2022-10-08T21:21:54.971Z,13.18
2022-10-08T21:24:23.590Z,13.02
2022-10-08T21:26:52.417Z,13.75
2022-10-08T21:29:21.525Z,13.90
2022-10-08T21:31:50.320Z,12.80
2022-10-08T21:34:19.068Z,12.82
2022-10-08T21:36:50.063Z,11.70
2022-10-08T21:39:18.890Z,12.18
2022-10-08T21:41:47.969Z,11.70
2022-10-08T21:44:16.915Z,10.98
2022-10-08T21:46:46.281Z,12.18
2022-10-08T21:49:20.501Z,11.25
2022-10-08T21:51:50.704Z,11.95
2022-10-08T21:54:19.599Z,11.50
2022-10-08T21:56:48.243Z,11.82
2022-10-08T21:59:18.048Z,11.32
2022-10-08T22:01:48.946Z,12.13
2022-10-08T22:04:20.878Z,12.57
2022-10-08T22:06:54.844Z,11.65
2022-10-08T22:09:26.242Z,11.30
2022-10-08T22:11:56.928Z,10.98
2022-10-08T22:14:26.522Z,11.23
2022-10-08T22:16:55.431Z,10.73
2022-10-08T22:19:24.214Z,10.05
2022-10-08T22:21:54.372Z,10.73
2022-10-08T22:24:23.011Z,9.27
2022-10-08T22:26:51.602Z,7.63
2022-10-08T22:29:20.363Z,8.48
2022-10-08T22:31:49.006Z,6.78
2022-10-08T22:34:17.637Z,6.97
2022-10-08T22:36:46.600Z,6.97
2022-10-08T22:39:17.346Z,6.18
2022-10-08T22:41:46.451Z,6.88
2022-10-08T22:44:15.163Z,6.50
2022-10-08T22:46:43.750Z,6.78
2022-10-08T22:49:13.362Z,7.22
2022-10-08T22:51:43.822Z,6.78
2022-10-08T22:54:12.476Z,7.05
2022-10-08T22:56:42.587Z,7.32
2022-10-08T22:59:11.480Z,7.15
2022-10-08T23:01:40.007Z,6.47
2022-10-08T23:04:08.585Z,6.78
2022-10-08T23:06:37.637Z,6.68
2022-10-08T23:09:09.152Z,6.28
2022-10-08T23:11:38.007Z,6.28
2022-10-08T23:14:08.095Z,6.68
2022-10-08T23:16:36.729Z,6.43
2022-10-08T23:19:09.192Z,6.03
2022-10-08T23:21:40.886Z,6.30
2022-10-08T23:24:12.758Z,6.43
2022-10-08T23:26:41.297Z,5.68
2022-10-08T23:29:12.888Z,6.20
2022-10-08T23:31:41.789Z,5.47
2022-10-08T23:34:10.414Z,5.93
2022-10-08T23:36:41.974Z,5.68
2022-10-08T23:39:15.174Z,5.53
2022-10-08T23:41:44.222Z,5.88
2022-10-08T23:44:14.501Z,5.95
2022-10-08T23:46:43.135Z,6.40
2022-10-08T23:49:11.831Z,6.07
2022-10-08T23:51:40.627Z,5.07
2022-10-08T23:54:09.170Z,5.18
2022-10-08T23:56:37.714Z,5.65
2022-10-08T23:59:06.483Z,5.30
